createdAt,value
2022-08-26T00:02:03.691Z,5.53
2022-08-26T00:04:50.763Z,5.18
2022-08-26T00:07:37.845Z,5.30
2022-08-26T00:10:25.871Z,5.18
2022-08-26T00:13:13.627Z,5.32
2022-08-26T00:16:01.083Z,5.70
2022-08-26T00:18:50.112Z,5.22
2022-08-26T00:21:37.611Z,4.82
2022-08-26T00:24:25.800Z,6.00
2022-08-26T00:27:12.790Z,5.13
2022-08-26T00:30:06.670Z,5.40
2022-08-26T00:32:54.387Z,4.57
2022-08-26T00:35:45.242Z,6.57
2022-08-26T00:38:32.671Z,5.35
2022-08-26T00:41:20.010Z,5.47
2022-08-26T00:44:08.301Z,5.43
2022-08-26T00:47:01.097Z,5.35
2022-08-26T00:49:49.253Z,4.80
2022-08-26T00:52:37.914Z,5.15
2022-08-26T00:55:37.977Z,5.50
2022-08-26T00:58:27.977Z,5.97
2022-08-26T01:01:15.807Z,5.50
2022-08-26T01:04:03.105Z,5.10
2022-08-26T01:06:53.061Z,5.80
2022-08-26T01:09:40.025Z,6.40
2022-08-26T01:12:31.725Z,5.72
2022-08-26T01:15:32.913Z,5.25
2022-08-26T01:18:20.533Z,5.20
2022-08-26T01:21:23.158Z,5.70
2022-08-26T01:24:12.047Z,5.75
2022-08-26T01:27:06.811Z,5.65
2022-08-26T01:29:54.441Z,5.50
2022-08-26T01:32:42.656Z,6.22
2022-08-26T01:35:30.511Z,5.68
2022-08-26T01:38:18.340Z,5.93
2022-08-26T01:41:16.030Z,5.88
2022-08-26T01:44:09.907Z,5.70
2022-08-26T01:46:58.752Z,5.45
2022-08-26T01:49:50.876Z,5.47
2022-08-26T01:52:44.318Z,5.88
2022-08-26T01:55:33.098Z,5.90
2022-08-26T01:58:32.148Z,5.53
2022-08-26T02:01:19.899Z,5.72
2022-08-26T02:04:20.845Z,5.68
2022-08-26T02:07:09.609Z,5.20
2022-08-26T02:09:56.872Z,5.57
2022-08-26T02:12:44.031Z,5.63
2022-08-26T02:15:33.309Z,5.50
2022-08-26T02:18:22.511Z,5.70
2022-08-26T02:21:10.906Z,5.57
2022-08-26T02:24:11.456Z,6.07
2022-08-26T02:26:59.240Z,5.22
2022-08-26T02:29:51.617Z,5.75
2022-08-26T02:32:40.232Z,6.20
2022-08-26T02:35:28.345Z,6.15
2022-08-26T02:38:17.063Z,5.47
2022-08-26T02:41:04.595Z,6.13
2022-08-26T02:43:55.864Z,5.55
2022-08-26T02:46:46.881Z,6.10
2022-08-26T02:49:34.292Z,6.45
2022-08-26T02:52:21.643Z,5.93
2022-08-26T02:55:08.845Z,6.60
2022-08-26T02:57:55.901Z,6.57
2022-08-26T03:00:52.622Z,6.85
2022-08-26T03:03:40.121Z,6.45
2022-08-26T03:06:27.616Z,5.70
2022-08-26T03:09:18.465Z,5.45
2022-08-26T03:12:06.244Z,5.60
2022-08-26T03:14:54.600Z,6.18
2022-08-26T03:17:41.918Z,6.28
2022-08-26T03:20:30.746Z,5.90
2022-08-26T03:23:18.586Z,6.70
2022-08-26T03:26:06.843Z,6.90
2022-08-26T03:29:12.807Z,6.03
2022-08-26T03:32:01.465Z,5.65
2022-08-26T03:34:48.516Z,6.95
2022-08-26T03:37:35.488Z,6.70
2022-08-26T03:40:22.905Z,6.10
2022-08-26T03:43:11.395Z,5.97
2022-08-26T03:45:58.411Z,6.13
2022-08-26T03:48:45.777Z,7.15
2022-08-26T03:51:35.671Z,6.88
2022-08-26T03:54:26.881Z,6.75
2022-08-26T03:57:13.850Z,7.63
2022-08-26T04:00:07.716Z,7.20
2022-08-26T04:02:54.879Z,6.63
2022-08-26T04:05:41.868Z,6.53
2022-08-26T04:08:28.860Z,6.93
2022-08-26T04:11:20.668Z,7.93
2022-08-26T04:14:17.675Z,8.20
2022-08-26T04:17:07.168Z,7.13
2022-08-26T04:19:54.586Z,7.40
2022-08-26T04:22:42.306Z,7.25
2022-08-26T04:25:29.250Z,7.70
2022-08-26T04:28:16.267Z,8.20
2022-08-26T04:31:03.687Z,9.00
2022-08-26T04:33:50.781Z,8.07
2022-08-26T04:36:38.017Z,8.13
2022-08-26T04:39:25.781Z,8.80
2022-08-26T04:42:17.946Z,9.23
2022-08-26T04:45:09.999Z,10.15
2022-08-26T04:47:57.554Z,10.18
2022-08-26T04:50:44.486Z,10.13
2022-08-26T04:53:37.511Z,10.48
2022-08-26T04:56:30.235Z,11.05
2022-08-26T04:59:18.218Z,10.98
2022-08-26T05:02:05.508Z,10.68
2022-08-26T05:04:52.936Z,12.05
2022-08-26T05:07:40.929Z,12.43
2022-08-26T05:10:28.930Z,12.90
2022-08-26T05:13:18.782Z,12.88
2022-08-26T05:16:11.638Z,12.93
2022-08-26T05:18:58.852Z,13.98
2022-08-26T05:21:47.176Z,14.35
2022-08-26T05:24:34.321Z,13.13
2022-08-26T05:27:21.267Z,14.85
2022-08-26T05:30:08.975Z,13.95
2022-08-26T05:32:56.591Z,14.40
2022-08-26T05:35:44.946Z,14.07
2022-08-26T05:38:31.934Z,14.95
2022-08-26T05:41:36.122Z,15.82
2022-08-26T05:44:24.412Z,16.10
2022-08-26T05:47:11.869Z,16.75
2022-08-26T05:50:00.462Z,14.52
2022-08-26T05:52:52.059Z,15.88
2022-08-26T05:55:50.543Z,16.75
2022-08-26T05:58:39.028Z,16.73
2022-08-26T06:01:27.940Z,16.17
2022-08-26T06:04:15.284Z,14.55
2022-08-26T06:07:02.387Z,16.35
2022-08-26T06:09:52.379Z,16.80
2022-08-26T06:12:39.318Z,15.00
2022-08-26T06:15:26.322Z,17.17
2022-08-26T06:18:15.007Z,16.73
2022-08-26T06:21:30.335Z,17.55
2022-08-26T06:24:36.805Z,17.25
2022-08-26T06:27:23.731Z,17.95
2022-08-26T06:30:11.269Z,17.88
2022-08-26T06:33:00.927Z,15.70
2022-08-26T06:35:50.210Z,18.45
2022-08-26T06:38:37.735Z,17.90
2022-08-26T06:41:25.814Z,18.30
2022-08-26T06:44:14.632Z,18.92
2022-08-26T06:47:01.642Z,18.83
2022-08-26T06:49:48.667Z,18.05
2022-08-26T06:52:40.661Z,17.45
2022-08-26T06:55:27.882Z,20.00
2022-08-26T06:58:14.947Z,18.52
2022-08-26T07:01:11.357Z,18.50
2022-08-26T07:04:03.795Z,18.17
2022-08-26T07:06:55.499Z,18.67
2022-08-26T07:09:42.895Z,17.35
2022-08-26T07:12:29.829Z,18.42
2022-08-26T07:15:17.565Z,18.58
2022-08-26T07:18:04.939Z,17.75
2022-08-26T07:20:51.889Z,17.35
2022-08-26T07:23:39.716Z,17.05
2022-08-26T07:26:29.733Z,17.38
2022-08-26T07:29:17.292Z,18.90
2022-08-26T07:32:04.835Z,16.92
2022-08-26T07:34:52.233Z,16.45
2022-08-26T07:37:39.417Z,17.33
2022-08-26T07:40:26.491Z,16.42
2022-08-26T07:43:13.789Z,16.60
2022-08-26T07:46:02.927Z,15.38
2022-08-26T07:48:50.911Z,16.55
2022-08-26T07:51:39.098Z,13.55
2022-08-26T07:54:27.080Z,13.73
2022-08-26T07:57:14.209Z,13.38
2022-08-26T08:00:02.086Z,14.63
2022-08-26T08:02:49.231Z,15.32
2022-08-26T08:05:37.596Z,13.73
2022-08-26T08:08:29.201Z,14.95
2022-08-26T08:11:16.326Z,13.68
2022-08-26T08:14:04.538Z,12.90
2022-08-26T08:16:55.871Z,12.02
2022-08-26T08:19:42.977Z,11.75
2022-08-26T08:22:30.324Z,11.60
2022-08-26T08:25:17.760Z,12.02
2022-08-26T08:28:04.764Z,12.30
2022-08-26T08:30:51.788Z,11.15
2022-08-26T08:33:38.736Z,11.65
2022-08-26T08:36:25.687Z,10.20
2022-08-26T08:39:19.199Z,10.95
2022-08-26T08:42:30.550Z,11.80
2022-08-26T08:45:49.758Z,18.05
2022-08-26T08:48:41.605Z,13.70
2022-08-26T08:51:35.637Z,10.95
2022-08-26T08:54:23.169Z,11.82
2022-08-26T08:57:28.051Z,11.27
2022-08-26T09:00:18.907Z,11.32
2022-08-26T09:03:29.200Z,9.95
2022-08-26T09:06:20.374Z,9.82
2022-08-26T09:09:08.168Z,10.18
2022-08-26T09:15:04.033Z,9.82
2022-08-26T09:18:39.742Z,10.27
2022-08-26T09:21:27.492Z,10.57
2022-08-26T09:24:14.476Z,10.20
2022-08-26T09:27:01.449Z,8.43
2022-08-26T09:29:50.270Z,9.13
2022-08-26T09:32:37.771Z,8.93
2022-08-26T09:35:35.890Z,9.00
2022-08-26T09:38:32.837Z,9.10
2022-08-26T09:41:24.949Z,9.27
2022-08-26T09:44:16.196Z,8.70
2022-08-26T09:47:19.533Z,9.52
2022-08-26T09:50:31.911Z,9.70
2022-08-26T09:53:28.680Z,8.88
2022-08-26T09:56:24.042Z,8.82
2022-08-26T09:59:12.229Z,8.68
2022-08-26T10:02:16.701Z,9.80
2022-08-26T10:05:10.473Z,8.60
2022-08-26T10:07:59.582Z,9.13
2022-08-26T10:10:47.335Z,8.60
2022-08-26T10:13:46.578Z,8.40
2022-08-26T10:16:45.599Z,8.23
2022-08-26T10:19:56.676Z,8.07
2022-08-26T10:23:06.730Z,8.85
2022-08-26T10:26:11.314Z,9.05
2022-08-26T10:29:12.281Z,9.93
2022-08-26T10:32:03.609Z,9.43
2022-08-26T10:34:51.489Z,8.23
2022-08-26T10:37:45.670Z,8.57
2022-08-26T10:40:44.846Z,9.02
2022-08-26T10:43:41.349Z,7.55
2022-08-26T10:46:45.512Z,8.80
2022-08-26T10:49:33.861Z,7.95
2022-08-26T10:52:32.154Z,8.38
2022-08-26T10:55:48.748Z,7.65
2022-08-26T10:58:42.255Z,7.90
2022-08-26T11:01:47.190Z,6.68
2022-08-26T11:04:56.052Z,7.53
2022-08-26T11:07:45.901Z,7.40
2022-08-26T11:10:58.865Z,7.55
2022-08-26T11:14:00.545Z,7.60
2022-08-26T11:16:53.338Z,7.63
2022-08-26T11:19:59.417Z,7.18
2022-08-26T11:22:48.226Z,7.50
2022-08-26T11:25:58.898Z,6.43
2022-08-26T11:28:49.791Z,6.50
2022-08-26T11:31:54.507Z,6.72
2022-08-26T11:34:56.360Z,7.03
2022-08-26T11:38:04.327Z,6.85
2022-08-26T11:41:13.171Z,7.20
2022-08-26T11:44:04.106Z,6.05
2022-08-26T11:46:59.995Z,6.53
2022-08-26T11:49:46.914Z,7.15
2022-08-26T11:52:36.986Z,6.63
2022-08-26T11:55:24.277Z,6.70
2022-08-26T11:58:12.779Z,6.63
2022-08-26T12:01:05.234Z,6.30
2022-08-26T12:03:58.737Z,7.55
2022-08-26T12:06:49.753Z,7.57
2022-08-26T12:09:52.464Z,7.78
2022-08-26T12:12:40.202Z,6.90
2022-08-26T12:15:30.137Z,7.40
2022-08-26T12:18:20.599Z,7.97
2022-08-26T12:21:22.689Z,8.15
2022-08-26T12:24:18.607Z,9.20
2022-08-26T12:27:53.708Z,9.30
2022-08-26T12:30:41.136Z,8.27
2022-08-26T12:33:30.191Z,8.70
2022-08-26T12:36:24.652Z,8.43
2022-08-26T12:39:25.440Z,8.65
2022-08-26T12:42:12.344Z,7.97
2022-08-26T12:45:03.349Z,9.48
2022-08-26T12:47:55.816Z,9.02
2022-08-26T12:50:51.380Z,8.23
2022-08-26T12:53:43.399Z,9.00
2022-08-26T12:56:36.234Z,8.07
2022-08-26T12:59:26.066Z,8.63
2022-08-26T13:02:37.590Z,9.18
2022-08-26T13:05:28.580Z,9.05
2022-08-26T13:08:27.382Z,9.30
2022-08-26T13:11:20.352Z,8.88
2022-08-26T13:14:11.008Z,8.85
2022-08-26T13:16:58.262Z,8.40
2022-08-26T13:19:45.413Z,7.95
2022-08-26T13:22:32.546Z,8.63
2022-08-26T13:25:19.824Z,8.75
2022-08-26T13:28:06.903Z,8.60
2022-08-26T13:30:54.006Z,7.28
2022-08-26T13:33:42.916Z,7.90
2022-08-26T13:36:30.389Z,7.40
2022-08-26T13:39:18.049Z,7.97
2022-08-26T13:42:05.290Z,8.27
2022-08-26T13:44:57.803Z,8.23
2022-08-26T13:47:44.823Z,8.32
2022-08-26T13:50:33.761Z,8.02
2022-08-26T13:53:20.948Z,8.15
2022-08-26T13:56:10.871Z,8.05
2022-08-26T13:58:59.694Z,8.43
2022-08-26T14:01:46.812Z,8.50
2022-08-26T14:04:33.971Z,8.93
2022-08-26T14:07:21.328Z,8.13
2022-08-26T14:10:09.078Z,8.30
2022-08-26T14:12:56.527Z,8.93
2022-08-26T14:36:31.307Z,9.38
2022-08-26T14:39:18.335Z,9.77
2022-08-26T14:42:06.377Z,9.55
2022-08-26T14:44:57.060Z,9.30
2022-08-26T14:47:48.376Z,9.98
2022-08-26T14:50:35.471Z,9.73
2022-08-26T14:53:41.271Z,10.65
2022-08-26T14:56:30.352Z,10.23
2022-08-26T14:59:26.761Z,10.45
2022-08-26T15:02:27.700Z,10.95
2022-08-26T15:05:20.739Z,10.48
2022-08-26T15:08:10.807Z,10.48
2022-08-26T15:10:58.068Z,10.50
2022-08-26T15:13:45.826Z,9.55
2022-08-26T15:16:33.488Z,5.50
2022-08-26T15:19:21.637Z,5.00
2022-08-26T15:22:08.674Z,5.05
2022-08-26T15:24:57.459Z,5.40
2022-08-26T15:27:44.584Z,5.15
2022-08-26T15:30:31.968Z,5.00
2022-08-26T15:33:18.953Z,5.05
2022-08-26T15:36:07.782Z,5.75
2022-08-26T15:38:55.239Z,6.20
2022-08-26T15:41:42.399Z,5.28
2022-08-26T15:44:29.771Z,5.60
2022-08-26T15:47:16.757Z,5.78
2022-08-26T15:50:06.985Z,5.90
2022-08-26T15:52:53.968Z,6.72
2022-08-26T15:55:41.183Z,8.25
2022-08-26T15:58:29.461Z,9.60
2022-08-26T16:01:24.390Z,10.40
2022-08-26T16:04:15.079Z,10.60
2022-08-26T16:07:02.586Z,10.00
2022-08-26T16:09:54.110Z,10.20
2022-08-26T16:12:42.138Z,6.32
2022-08-26T16:15:29.152Z,6.00
2022-08-26T16:18:16.474Z,5.22
2022-08-26T16:21:13.218Z,5.90
2022-08-26T16:24:01.140Z,5.03
2022-08-26T16:26:49.151Z,5.03
2022-08-26T16:29:37.980Z,9.82
2022-08-26T16:32:28.245Z,9.63
2022-08-26T16:35:17.670Z,11.13
2022-08-26T16:38:05.169Z,10.68
2022-08-26T16:40:52.162Z,11.27
2022-08-26T16:43:39.123Z,11.23
2022-08-26T16:46:27.144Z,10.43
2022-08-26T16:49:14.237Z,10.43
2022-08-26T16:52:01.244Z,10.93
2022-08-26T16:54:48.241Z,12.68
2022-08-26T16:57:40.090Z,14.18
2022-08-26T17:00:30.918Z,14.77
2022-08-26T17:03:17.863Z,14.25
2022-08-26T17:06:05.015Z,13.77
2022-08-26T17:08:52.441Z,13.98
2022-08-26T17:11:39.535Z,13.02
2022-08-26T17:14:26.550Z,14.88
2022-08-26T17:17:13.703Z,14.63
2022-08-26T17:20:05.450Z,15.25
2022-08-26T17:22:55.003Z,15.50
2022-08-26T17:25:42.372Z,15.65
2022-08-26T17:28:29.633Z,14.90
2022-08-26T17:31:16.678Z,16.50
2022-08-26T17:34:03.879Z,17.75
2022-08-26T17:36:50.920Z,16.05
2022-08-26T17:39:42.440Z,15.20
2022-08-26T17:42:31.368Z,15.15
2022-08-26T17:48:06.156Z,14.20
2022-08-26T17:50:53.645Z,15.68
2022-08-26T17:53:41.841Z,14.35
2022-08-26T17:56:29.912Z,14.65
2022-08-26T17:59:17.114Z,14.82
2022-08-26T18:02:05.284Z,15.70
2022-08-26T18:04:52.198Z,14.90
2022-08-26T18:07:44.109Z,16.08
2022-08-26T18:10:31.339Z,17.08
2022-08-26T18:13:18.853Z,16.67
2022-08-26T18:16:06.769Z,16.85
2022-08-26T18:18:54.385Z,15.25
2022-08-26T18:21:41.474Z,16.00
2022-08-26T18:24:32.188Z,16.15
2022-08-26T18:27:19.154Z,15.55
2022-08-26T18:30:13.395Z,15.77
2022-08-26T18:33:03.222Z,16.83
2022-08-26T18:35:50.198Z,14.70
2022-08-26T18:38:37.148Z,16.25
2022-08-26T18:41:28.634Z,16.95
2022-08-26T18:44:17.775Z,15.52
2022-08-26T18:47:05.044Z,13.73
2022-08-26T18:49:52.011Z,16.20
2022-08-26T18:52:40.266Z,16.10
2022-08-26T18:55:27.182Z,17.00
2022-08-26T18:58:15.953Z,17.30
2022-08-26T19:01:03.015Z,16.70
2022-08-26T19:03:50.345Z,15.40
2022-08-26T19:06:39.356Z,15.02
2022-08-26T19:09:26.432Z,16.80
2022-08-26T19:12:14.932Z,15.25
2022-08-26T19:15:03.485Z,15.23
2022-08-26T19:17:50.547Z,15.93
2022-08-26T19:20:46.472Z,15.45
2022-08-26T19:23:34.217Z,16.85
2022-08-26T19:26:21.398Z,18.42
2022-08-26T19:29:08.987Z,15.25
2022-08-26T19:31:56.483Z,15.68
2022-08-26T19:34:44.448Z,15.60
2022-08-26T19:37:31.387Z,13.95
2022-08-26T19:40:18.436Z,15.60
2022-08-26T19:43:06.776Z,16.73
2022-08-26T19:45:53.832Z,16.58
2022-08-26T19:48:43.936Z,15.05
2022-08-26T19:51:33.970Z,15.27
2022-08-26T19:54:22.623Z,18.83
2022-08-26T19:57:09.578Z,16.40
2022-08-26T19:59:56.552Z,17.05
2022-08-26T20:02:44.398Z,17.33
2022-08-26T20:05:31.392Z,14.75
2022-08-26T20:08:22.609Z,18.55
2022-08-26T20:11:16.075Z,16.98
2022-08-26T20:14:03.298Z,16.90
2022-08-26T20:16:50.326Z,16.83
2022-08-26T20:20:03.994Z,17.92
2022-08-26T20:22:51.023Z,17.13
2022-08-26T20:25:38.521Z,17.00
2022-08-26T20:28:25.527Z,17.63
2022-08-26T20:31:12.652Z,18.08
2022-08-26T20:34:00.857Z,18.10
2022-08-26T20:36:49.617Z,16.27
2022-08-26T20:39:36.810Z,16.27
2022-08-26T20:42:23.838Z,17.33
2022-08-26T20:45:11.141Z,15.93
2022-08-26T20:47:58.188Z,16.98
2022-08-26T20:50:45.942Z,16.70
2022-08-26T20:53:33.707Z,17.98
2022-08-26T20:56:24.104Z,15.90
2022-08-26T20:59:11.420Z,17.95
2022-08-26T21:01:58.380Z,16.02
2022-08-26T21:04:45.432Z,17.58
2022-08-26T21:07:32.531Z,16.33
2022-08-26T21:10:19.554Z,16.63
2022-08-26T21:13:07.674Z,18.08
2022-08-26T21:15:57.219Z,17.08
2022-08-26T21:18:44.197Z,16.10
2022-08-26T21:21:31.292Z,18.30
2022-08-26T21:24:18.523Z,18.17
2022-08-26T21:27:05.610Z,14.48
2022-08-26T21:29:52.580Z,15.77
2022-08-26T21:32:39.603Z,18.27
2022-08-26T21:35:26.565Z,17.13
2022-08-26T21:38:13.575Z,17.23
2022-08-26T21:41:03.375Z,18.08
2022-08-26T21:43:54.583Z,14.68
2022-08-26T21:46:42.610Z,17.23
2022-08-26T21:49:29.594Z,17.70
2022-08-26T21:52:17.283Z,15.90
2022-08-26T21:55:09.030Z,15.98
2022-08-26T21:57:56.291Z,14.10
2022-08-26T22:00:51.154Z,16.20
2022-08-26T22:03:47.042Z,15.60
2022-08-26T22:06:40.917Z,13.88
2022-08-26T22:09:30.890Z,14.55
2022-08-26T22:12:18.358Z,14.60
2022-08-26T22:15:06.166Z,15.18
2022-08-26T22:17:53.186Z,14.85
2022-08-26T22:20:40.485Z,13.80
2022-08-26T22:23:28.137Z,14.88
2022-08-26T22:26:25.326Z,15.23
2022-08-26T22:29:12.970Z,12.55
2022-08-26T22:32:00.961Z,13.68
2022-08-26T22:34:48.509Z,13.38
2022-08-26T22:37:35.587Z,13.23
2022-08-26T22:40:22.813Z,12.00
2022-08-26T22:43:09.971Z,11.43
2022-08-26T22:45:57.164Z,11.32
2022-08-26T22:48:44.343Z,12.63
2022-08-26T22:51:31.880Z,13.68
2022-08-26T22:54:19.263Z,12.43
2022-08-26T22:57:06.863Z,12.43
2022-08-26T22:59:53.887Z,11.07
2022-08-26T23:02:41.794Z,12.00
2022-08-26T23:05:29.515Z,12.43
2022-08-26T23:08:16.752Z,13.80
2022-08-26T23:11:10.612Z,14.95
2022-08-26T23:13:57.595Z,13.27
2022-08-26T23:16:45.872Z,15.07
2022-08-26T23:19:32.914Z,14.52
2022-08-26T23:22:19.948Z,16.95
2022-08-26T23:25:10.034Z,16.25
2022-08-26T23:27:57.069Z,17.88
2022-08-26T23:30:44.064Z,20.75
2022-08-26T23:33:50.995Z,20.90
2022-08-26T23:36:38.156Z,18.40
2022-08-26T23:39:25.812Z,23.08
2022-08-26T23:42:13.528Z,22.33
2022-08-26T23:45:01.064Z,23.50
2022-08-26T23:47:50.485Z,22.70
2022-08-26T23:50:56.461Z,25.48
2022-08-26T23:53:43.531Z,27.05
2022-08-26T23:56:30.511Z,23.10
2022-08-26T23:59:17.601Z,24.15
